Time;durP1;ratioP1;P1;durP2;ratioP2;P2;SDS_P1;SDS_P2;PMS_P1;PMS_P2;Temp;Humidity;BMP_temperature;BMP_pressure;BME280_temperature;BME280_humidity;BME280_pressure;Samples;Min_cycle;Max_cycle;Signal;HPM_P1;HPM_P2
2023/04/07 00:02:20;;;;;;;11.65;8.40;;;;;;;;;;5054005;28;20055;-83
2023/04/07 00:04:47;;;;;;;11.98;8.48;;;;;;;;;;5036079;28;20042;-84
2023/04/07 00:07:14;;;;;;;10.77;8.40;;;;;;;;;;5034618;28;20053;-84
2023/04/07 00:09:42;;;;;;;18.95;9.10;;;;;;;;;;5035087;28;20579;-84
2023/04/07 00:12:09;;;;;;;10.43;7.88;;;;;;;;;;5034750;28;20056;-83
2023/04/07 00:14:36;;;;;;;12.73;8.77;;;;;;;;;;5049898;28;20087;-84
2023/04/07 00:17:03;;;;;;;13.27;8.18;;;;;;;;;;5046639;28;20061;-85
2023/04/07 00:19:32;;;;;;;9.55;8.00;;;;;;;;;;5037742;28;20136;-84
2023/04/07 00:21:59;;;;;;;12.13;7.78;;;;;;;;;;5036000;28;20053;-84
2023/04/07 00:24:26;;;;;;;10.38;7.85;;;;;;;;;;5024078;28;20049;-85
2023/04/07 00:27:00;;;;;;;11.70;8.27;;;;;;;;;;5016418;28;20053;-84
2023/04/07 00:29:28;;;;;;;12.93;7.95;;;;;;;;;;5047724;28;20118;-84
2023/04/07 00:31:55;;;;;;;12.23;8.63;;;;;;;;;;5036062;28;20439;-84
2023/04/07 00:34:22;;;;;;;10.88;8.23;;;;;;;;;;5034960;28;20144;-84
2023/04/07 00:36:51;;;;;;;12.55;8.23;;;;;;;;;;5039168;28;20522;-84
2023/04/07 00:39:19;;;;;;;12.43;8.75;;;;;;;;;;5054938;28;20546;-84
2023/04/07 00:41:46;;;;;;;13.30;8.70;;;;;;;;;;5055670;28;20060;-84
2023/04/07 00:44:13;;;;;;;14.07;9.02;;;;;;;;;;5037235;28;20045;-84
2023/04/07 00:46:41;;;;;;;16.17;8.88;;;;;;;;;;5037758;28;20103;-84
2023/04/07 00:49:08;;;;;;;12.23;8.15;;;;;;;;;;5038058;28;20045;-83
2023/04/07 00:51:37;;;;;;;17.42;8.98;;;;;;;;;;5038337;28;20393;-83
2023/04/07 00:54:04;;;;;;;10.55;7.82;;;;;;;;;;5036562;28;20049;-83
2023/04/07 00:56:32;;;;;;;12.93;8.45;;;;;;;;;;5037829;28;20048;-83
2023/04/07 00:58:59;;;;;;;11.88;8.10;;;;;;;;;;5039739;28;20055;-85
2023/04/07 01:01:30;;;;;;;12.48;8.68;;;;;;;;;;5048798;28;20052;-83
2023/04/07 01:04:00;;;;;;;12.90;8.82;;;;;;;;;;5045782;28;20508;-85
2023/04/07 01:06:30;;;;;;;15.25;8.93;;;;;;;;;;5046512;28;20136;-85
2023/04/07 01:09:02;;;;;;;11.68;9.15;;;;;;;;;;5045987;28;20072;-85
2023/04/07 01:11:37;;;;;;;13.45;9.07;;;;;;;;;;5045418;28;20052;-85
2023/04/07 01:14:05;;;;;;;13.32;9.38;;;;;;;;;;5042952;28;20078;-85
2023/04/07 01:16:40;;;;;;;11.63;9.13;;;;;;;;;;5042856;28;20503;-85
2023/04/07 01:19:16;;;;;;;17.17;9.55;;;;;;;;;;5043072;28;20064;-85
2023/04/07 01:21:44;;;;;;;17.63;9.60;;;;;;;;;;5060304;28;20049;-85
2023/04/07 01:24:22;;;;;;;13.57;9.60;;;;;;;;;;5040623;28;20127;-83
2023/04/07 01:26:50;;;;;;;13.60;9.27;;;;;;;;;;5041016;28;20044;-85
2023/04/07 01:29:30;;;;;;;11.02;8.88;;;;;;;;;;5039041;28;20136;-85
2023/04/07 01:31:58;;;;;;;10.90;8.90;;;;;;;;;;5038737;28;20067;-85
2023/04/07 01:34:27;;;;;;;15.35;9.30;;;;;;;;;;5057860;28;20052;-85
2023/04/07 01:36:54;;;;;;;12.55;8.57;;;;;;;;;;5039462;28;20049;-83
2023/04/07 01:39:22;;;;;;;10.95;8.55;;;;;;;;;;5057056;28;20075;-84
2023/04/07 01:41:51;;;;;;;12.63;8.43;;;;;;;;;;5038016;28;20052;-83
2023/04/07 01:44:20;;;;;;;12.30;8.80;;;;;;;;;;5054319;28;20484;-84
2023/04/07 01:46:49;;;;;;;12.43;8.55;;;;;;;;;;5056462;28;20504;-85
2023/04/07 01:49:18;;;;;;;15.00;9.35;;;;;;;;;;5038529;28;20051;-83
2023/04/07 01:51:49;;;;;;;13.48;9.40;;;;;;;;;;5043717;28;20072;-85
2023/04/07 01:54:17;;;;;;;16.00;9.77;;;;;;;;;;5053818;28;20060;-85
2023/04/07 01:56:45;;;;;;;13.05;9.00;;;;;;;;;;5060997;28;20095;-85
2023/04/07 01:59:12;;;;;;;11.10;8.88;;;;;;;;;;5045282;28;20128;-85
2023/04/07 02:01:39;;;;;;;13.13;8.95;;;;;;;;;;5047368;28;20083;-86
2023/04/07 02:04:07;;;;;;;13.88;9.30;;;;;;;;;;5044555;28;20140;-84
2023/04/07 02:06:38;;;;;;;14.77;9.60;;;;;;;;;;5044404;28;20052;-85
2023/04/07 02:09:07;;;;;;;13.45;9.57;;;;;;;;;;5059325;28;20105;-85
2023/04/07 02:11:35;;;;;;;13.68;9.60;;;;;;;;;;5042418;28;20123;-86
2023/04/07 02:14:03;;;;;;;12.68;9.48;;;;;;;;;;5039983;28;20136;-83
2023/04/07 02:16:31;;;;;;;12.27;9.15;;;;;;;;;;5035151;28;20045;-84
2023/04/07 02:18:58;;;;;;;14.15;9.48;;;;;;;;;;5034246;28;20041;-84
2023/04/07 02:21:27;;;;;;;17.98;9.85;;;;;;;;;;5036558;28;20044;-85
2023/04/07 02:23:54;;;;;;;18.77;9.98;;;;;;;;;;5040054;28;20503;-85
2023/04/07 02:26:22;;;;;;;16.17;10.45;;;;;;;;;;5040489;28;20132;-85
2023/04/07 02:28:49;;;;;;;15.55;10.23;;;;;;;;;;5039243;28;20131;-85
2023/04/07 02:31:16;;;;;;;15.30;9.43;;;;;;;;;;5043808;28;20041;-83
2023/04/07 02:33:43;;;;;;;16.73;10.15;;;;;;;;;;5059722;28;20045;-85
2023/04/07 02:36:10;;;;;;;12.60;9.10;;;;;;;;;;5040707;28;20518;-85
2023/04/07 02:38:38;;;;;;;11.68;8.90;;;;;;;;;;5043435;28;20045;-85
2023/04/07 02:41:05;;;;;;;14.00;9.15;;;;;;;;;;5057891;28;20118;-85
2023/04/07 02:43:32;;;;;;;12.75;9.20;;;;;;;;;;5051079;28;20056;-83
2023/04/07 02:46:00;;;;;;;12.65;8.90;;;;;;;;;;5039608;28;20073;-85
2023/04/07 02:48:27;;;;;;;14.77;9.63;;;;;;;;;;5039036;28;20041;-85
2023/04/07 02:50:54;;;;;;;17.17;10.57;;;;;;;;;;5055900;28;20045;-83
2023/04/07 02:53:21;;;;;;;15.02;10.20;;;;;;;;;;5055504;28;20911;-84
2023/04/07 02:55:48;;;;;;;13.13;9.75;;;;;;;;;;5054838;28;20049;-85
2023/04/07 02:58:15;;;;;;;19.98;10.00;;;;;;;;;;5051173;28;20091;-85
2023/04/07 03:00:43;;;;;;;14.32;9.77;;;;;;;;;;5037711;28;20086;-85
2023/04/07 03:03:10;;;;;;;14.52;9.63;;;;;;;;;;5037512;28;20135;-84
2023/04/07 03:05:37;;;;;;;12.88;9.93;;;;;;;;;;5037910;28;20045;-83
2023/04/07 03:08:04;;;;;;;18.17;9.90;;;;;;;;;;5036573;28;20124;-85
2023/04/07 03:10:31;;;;;;;16.05;10.15;;;;;;;;;;5037093;28;20132;-85
2023/04/07 03:12:59;;;;;;;15.25;10.18;;;;;;;;;;5036626;28;20041;-85
2023/04/07 03:15:26;;;;;;;14.73;9.80;;;;;;;;;;5054767;28;20535;-85
2023/04/07 03:17:53;;;;;;;14.75;9.90;;;;;;;;;;5028324;23;20584;-91
2023/04/07 03:20:20;;;;;;;16.35;9.52;;;;;;;;;;5017833;28;20103;-92
2023/04/07 03:22:48;;;;;;;15.95;10.65;;;;;;;;;;5018256;28;20089;-92
2023/04/07 03:25:15;;;;;;;15.77;10.65;;;;;;;;;;5033745;28;20136;-92
2023/04/07 03:27:43;;;;;;;14.32;9.93;;;;;;;;;;5026915;28;20073;-92
2023/04/07 03:30:10;;;;;;;14.63;9.55;;;;;;;;;;5035917;28;20152;-92
2023/04/07 03:32:38;;;;;;;21.02;11.43;;;;;;;;;;5038812;28;20080;-92
2023/04/07 03:35:05;;;;;;;14.75;10.05;;;;;;;;;;5039168;28;20051;-92
2023/04/07 03:37:33;;;;;;;12.73;9.98;;;;;;;;;;5046100;28;20076;-92
2023/04/07 03:40:00;;;;;;;14.20;10.20;;;;;;;;;;5048324;28;20075;-93
2023/04/07 03:42:28;;;;;;;14.35;9.90;;;;;;;;;;5047108;28;20126;-92
2023/04/07 03:44:55;;;;;;;19.65;11.10;;;;;;;;;;5042381;28;20044;-92
2023/04/07 03:47:22;;;;;;;15.45;11.55;;;;;;;;;;5041791;28;20078;-92
2023/04/07 03:49:50;;;;;;;19.20;11.25;;;;;;;;;;5041690;28;20057;-91
2023/04/07 03:52:17;;;;;;;15.55;10.32;;;;;;;;;;5044833;28;20065;-92
2023/04/07 03:54:44;;;;;;;20.75;12.07;;;;;;;;;;5032407;28;20505;-92
2023/04/07 03:57:12;;;;;;;24.90;12.38;;;;;;;;;;5006744;28;20050;-92
2023/04/07 03:59:39;;;;;;;21.17;12.07;;;;;;;;;;5022318;28;20072;-92
2023/04/07 04:02:06;;;;;;;18.83;12.02;;;;;;;;;;5040917;28;20490;-92
2023/04/07 04:04:34;;;;;;;17.42;11.55;;;;;;;;;;5041135;28;20144;-92
2023/04/07 04:07:01;;;;;;;20.33;12.15;;;;;;;;;;5042300;28;20049;-92
2023/04/07 04:09:29;;;;;;;18.38;11.95;;;;;;;;;;5042808;28;20045;-92
2023/04/07 04:11:56;;;;;;;19.77;12.00;;;;;;;;;;5035930;28;20053;-92
2023/04/07 04:14:29;;;;;;;23.60;13.52;;;;;;;;;;5027472;28;20049;-93
2023/04/07 04:16:56;;;;;;;;;;;;;;;;;;5032165;28;20097;-93
2023/04/07 04:19:24;;;;;;;24.77;14.45;;;;;;;;;;5060209;28;19921;-92
2023/04/07 04:21:52;;;;;;;20.73;12.27;;;;;;;;;;5058922;28;20068;-93
2023/04/07 04:24:19;;;;;;;16.80;11.13;;;;;;;;;;5064590;28;20044;-93
2023/04/07 04:26:47;;;;;;;20.65;10.63;;;;;;;;;;5077112;28;20052;-93
2023/04/07 04:29:14;;;;;;;19.45;11.77;;;;;;;;;;5069219;28;20044;-92
2023/04/07 04:31:41;;;;;;;22.30;12.18;;;;;;;;;;5069544;28;20064;-93
2023/04/07 04:34:09;;;;;;;16.67;11.98;;;;;;;;;;5069148;28;20497;-92
2023/04/07 04:36:39;;;;;;;17.88;12.60;;;;;;;;;;5072917;28;20045;-92
2023/04/07 04:39:09;;;;;;;19.70;13.30;;;;;;;;;;5072840;28;20083;-93
2023/04/07 04:41:37;;;;;;;17.05;11.98;;;;;;;;;;5053414;28;20045;-92
2023/04/07 04:44:05;;;;;;;16.23;11.43;;;;;;;;;;5051767;28;20287;-93
2023/04/07 04:46:36;;;;;;;17.27;10.98;;;;;;;;;;5089604;28;20060;-93
2023/04/07 04:49:03;;;;;;;20.20;12.77;;;;;;;;;;5073282;28;20055;-93
2023/04/07 04:51:31;;;;;;;21.15;11.57;;;;;;;;;;5062009;28;20086;-93
2023/04/07 04:53:59;;;;;;;17.40;11.60;;;;;;;;;;5046479;28;20063;-92
2023/04/07 04:56:26;;;;;;;21.05;12.43;;;;;;;;;;5047140;28;20493;-93
2023/04/07 04:58:54;;;;;;;20.17;12.13;;;;;;;;;;5043102;28;20045;-92
2023/04/07 05:01:21;;;;;;;21.02;13.15;;;;;;;;;;5041490;28;20520;-92
2023/04/07 05:03:49;;;;;;;19.27;12.15;;;;;;;;;;5058805;28;20053;-92
2023/04/07 05:06:17;;;;;;;17.23;11.80;;;;;;;;;;5053753;28;20053;-94
2023/04/07 05:08:47;;;;;;;21.17;12.48;;;;;;;;;;5057829;28;20049;-93
2023/04/07 05:11:14;;;;;;;28.38;15.88;;;;;;;;;;5057354;28;20057;-92
2023/04/07 05:13:43;;;;;;;26.73;16.92;;;;;;;;;;5072546;28;20061;-93
2023/04/07 05:16:12;;;;;;;22.15;13.35;;;;;;;;;;5058356;28;20103;-92
2023/04/07 05:18:40;;;;;;;22.48;13.60;;;;;;;;;;5026503;28;20051;-92
2023/04/07 05:21:08;;;;;;;23.02;14.57;;;;;;;;;;5054164;28;20055;-93
2023/04/07 05:23:35;;;;;;;19.55;12.95;;;;;;;;;;5064444;28;20076;-93
2023/04/07 05:26:03;;;;;;;24.40;14.32;;;;;;;;;;5062998;28;20045;-92
2023/04/07 05:28:30;;;;;;;22.92;14.10;;;;;;;;;;5064030;28;20112;-92
2023/04/07 05:30:58;;;;;;;21.48;13.85;;;;;;;;;;5047936;28;20049;-93
2023/04/07 05:33:25;;;;;;;24.30;15.38;;;;;;;;;;5025194;28;20080;-93
2023/04/07 05:35:52;;;;;;;28.40;16.52;;;;;;;;;;5023092;28;20072;-93
2023/04/07 05:38:20;;;;;;;43.55;21.08;;;;;;;;;;5025117;28;20061;-92
2023/04/07 05:40:47;;;;;;;46.90;25.05;;;;;;;;;;5050634;28;20041;-92
2023/04/07 05:43:15;;;;;;;49.38;26.77;;;;;;;;;;5044451;28;20553;-93
2023/04/07 05:45:42;;;;;;;50.05;26.90;;;;;;;;;;5051486;28;20079;-92
2023/04/07 05:48:10;;;;;;;37.92;23.13;;;;;;;;;;5062083;28;20493;-93
2023/04/07 05:50:37;;;;;;;32.00;20.80;;;;;;;;;;5055670;28;20045;-93
2023/04/07 05:53:05;;;;;;;27.48;16.73;;;;;;;;;;5045963;28;20045;-94
2023/04/07 05:55:32;;;;;;;21.02;14.15;;;;;;;;;;5045454;28;20049;-94
2023/04/07 05:58:00;;;;;;;14.80;12.40;;;;;;;;;;5048294;28;20045;-94
2023/04/07 06:00:27;;;;;;;11.88;7.95;;;;;;;;;;5054094;28;20048;-94
2023/04/07 06:02:55;;;;;;;8.88;7.40;;;;;;;;;;5069857;28;20048;-94
2023/04/07 06:05:23;;;;;;;12.23;7.57;;;;;;;;;;5070215;28;20110;-95
2023/04/07 06:07:51;;;;;;;9.32;5.95;;;;;;;;;;5070957;28;20059;-94
2023/04/07 06:10:18;;;;;;;6.80;5.65;;;;;;;;;;5063915;28;20056;-94
2023/04/07 06:12:46;;;;;;;6.78;5.50;;;;;;;;;;5045940;28;20071;-95
2023/04/07 06:15:13;;;;;;;8.07;5.65;;;;;;;;;;5038882;28;20041;-95
2023/04/07 06:17:44;;;;;;;7.25;5.55;;;;;;;;;;5023820;28;20084;-95
2023/04/07 06:20:12;;;;;;;7.00;5.57;;;;;;;;;;5038448;28;20044;-94
2023/04/07 06:22:39;;;;;;;5.45;4.95;;;;;;;;;;5062304;28;20135;-94
2023/04/07 06:25:06;;;;;;;5.65;5.03;;;;;;;;;;5063732;28;20055;-94
2023/04/07 06:27:34;;;;;;;9.38;5.53;;;;;;;;;;5059327;28;20485;-94
2023/04/07 06:30:01;;;;;;;6.93;5.55;;;;;;;;;;5055935;28;20045;-94
2023/04/07 06:32:28;;;;;;;7.20;5.63;;;;;;;;;;5041792;28;20079;-94
2023/04/07 06:34:56;;;;;;;7.15;4.93;;;;;;;;;;5039096;28;20056;-94
2023/04/07 06:37:24;;;;;;;5.45;4.85;;;;;;;;;;5036622;28;20055;-95
2023/04/07 06:39:52;;;;;;;10.43;5.43;;;;;;;;;;5030898;28;20059;-94
2023/04/07 06:42:20;;;;;;;8.95;5.43;;;;;;;;;;5053581;28;20049;-94
2023/04/07 06:44:47;;;;;;;6.38;5.65;;;;;;;;;;5030292;28;20094;-93
2023/04/07 06:47:15;;;;;;;6.78;5.60;;;;;;;;;;5047430;28;20041;-94
2023/04/07 06:49:43;;;;;;;6.50;4.80;;;;;;;;;;5029439;28;20045;-94
2023/04/07 06:52:10;;;;;;;5.75;5.10;;;;;;;;;;5060160;28;20056;-93
2023/04/07 06:54:37;;;;;;;8.25;5.25;;;;;;;;;;5065453;28;20138;-93
2023/04/07 06:57:10;;;;;;;8.20;5.93;;;;;;;;;;5053426;28;20136;-93
2023/04/07 06:59:38;;;;;;;6.15;5.40;;;;;;;;;;5052311;28;20489;-94
2023/04/07 07:02:06;;;;;;;14.98;5.78;;;;;;;;;;5053709;28;20050;-94
2023/04/07 07:04:34;;;;;;;10.32;6.30;;;;;;;;;;5056990;28;20109;-95
2023/04/07 07:07:02;;;;;;;7.20;5.78;;;;;;;;;;5057460;28;20048;-93
2023/04/07 07:09:32;;;;;;;9.93;8.93;;;;;;;;;;5059407;28;20559;-94
2023/04/07 07:12:01;;;;;;;10.05;6.53;;;;;;;;;;5045835;28;20083;-93
2023/04/07 07:14:30;;;;;;;8.90;6.07;;;;;;;;;;5048494;28;20062;-93
2023/04/07 07:17:30;;;;;;;12.90;9.30;;;;;;;;;;5078818;28;20084;-93
2023/04/07 07:20:11;;;;;;;8.40;6.30;;;;;;;;;;5070865;28;20071;-92
2023/04/07 07:22:38;;;;;;;7.00;5.85;;;;;;;;;;5073046;28;20057;-93
2023/04/07 07:25:06;;;;;;;6.10;5.50;;;;;;;;;;5066022;28;20080;-93
2023/04/07 07:27:33;;;;;;;9.98;5.82;;;;;;;;;;5061898;28;20072;-93
2023/04/07 07:30:01;;;;;;;5.35;4.85;;;;;;;;;;5064627;28;20547;-94
2023/04/07 07:32:29;;;;;;;6.05;5.15;;;;;;;;;;5066955;28;20542;-93
2023/04/07 07:34:57;;;;;;;6.72;5.38;;;;;;;;;;5062770;28;20141;-92
2023/04/07 07:37:24;;;;;;;8.32;5.07;;;;;;;;;;5039345;28;20083;-93
2023/04/07 07:39:52;;;;;;;5.47;4.60;;;;;;;;;;5041377;28;20077;-93
2023/04/07 07:42:19;;;;;;;5.93;4.55;;;;;;;;;;5038989;28;20048;-92
2023/04/07 07:44:46;;;;;;;7.05;5.30;;;;;;;;;;5037011;28;20055;-93
2023/04/07 07:47:13;;;;;;;6.18;4.80;;;;;;;;;;5038197;28;20049;-92
2023/04/07 07:49:41;;;;;;;5.28;4.65;;;;;;;;;;5038578;28;20520;-92
2023/04/07 07:52:09;;;;;;;7.50;5.35;;;;;;;;;;5038332;28;20131;-92
2023/04/07 07:54:37;;;;;;;5.32;4.65;;;;;;;;;;5037255;28;20044;-94
2023/04/07 07:57:05;;;;;;;5.00;4.50;;;;;;;;;;5038002;28;20080;-92
2023/04/07 07:59:32;;;;;;;7.93;5.10;;;;;;;;;;5038333;28;20400;-93
2023/04/07 08:02:00;;;;;;;5.88;5.28;;;;;;;;;;5042054;28;20127;-93
2023/04/07 08:04:27;;;;;;;6.97;4.97;;;;;;;;;;5037776;28;20052;-93
2023/04/07 08:06:55;;;;;;;10.55;5.50;;;;;;;;;;5049585;28;20056;-92
2023/04/07 08:09:23;;;;;;;7.75;4.80;;;;;;;;;;5052375;28;20044;-90
2023/04/07 08:11:51;;;;;;;6.18;4.85;;;;;;;;;;5038207;28;20057;-89
2023/04/07 08:14:19;;;;;;;6.30;5.05;;;;;;;;;;5038426;28;20037;-91
2023/04/07 08:16:46;;;;;;;7.07;5.35;;;;;;;;;;5033598;28;20053;-89
2023/04/07 08:19:14;;;;;;;6.63;5.75;;;;;;;;;;5019277;28;20554;-90
2023/04/07 08:21:42;;;;;;;6.13;5.53;;;;;;;;;;5019293;28;20053;-89
2023/04/07 08:24:10;;;;;;;6.18;5.53;;;;;;;;;;5018742;28;20569;-91
2023/04/07 08:26:37;;;;;;;7.75;5.97;;;;;;;;;;5018464;28;20391;-90
2023/04/07 08:29:05;;;;;;;7.28;5.93;;;;;;;;;;5009667;28;20045;-90
2023/04/07 08:31:33;;;;;;;6.70;5.85;;;;;;;;;;5015380;28;20042;-92
2023/04/07 08:34:00;;;;;;;8.48;5.45;;;;;;;;;;5006682;28;20049;-89
2023/04/07 08:36:28;;;;;;;5.60;4.70;;;;;;;;;;5026107;28;20045;-90
2023/04/07 08:38:57;;;;;;;6.43;5.03;;;;;;;;;;5038819;28;20053;-91
2023/04/07 08:41:28;;;;;;;5.78;5.00;;;;;;;;;;5022462;28;20136;-91
2023/04/07 08:43:56;;;;;;;5.38;4.80;;;;;;;;;;5018805;28;20049;-90
2023/04/07 08:46:25;;;;;;;5.32;4.82;;;;;;;;;;5015740;28;20041;-92
2023/04/07 08:48:52;;;;;;;5.45;4.95;;;;;;;;;;5019135;28;20053;-91
2023/04/07 08:51:38;;;;;;;6.75;4.93;;;;;;;;;;5006081;28;20508;-91
2023/04/07 08:54:13;;;;;;;6.05;5.45;;;;;;;;;;5028160;28;20053;-91
2023/04/07 08:56:41;;;;;;;5.85;5.28;;;;;;;;;;5038250;28;20340;-91
2023/04/07 08:59:10;;;;;;;7.68;6.25;;;;;;;;;;5018582;28;20127;-92
2023/04/07 09:01:38;;;;;;;9.68;6.38;;;;;;;;;;5011466;28;20054;-90
2023/04/07 09:04:07;;;;;;;6.38;5.72;;;;;;;;;;4999284;28;20065;-92
2023/04/07 09:06:35;;;;;;;7.15;5.75;;;;;;;;;;5022871;28;20068;-92
2023/04/07 09:09:06;;;;;;;7.35;5.75;;;;;;;;;;5035774;28;20080;-92
2023/04/07 09:11:39;;;;;;;9.38;6.43;;;;;;;;;;5016874;28;20057;-92
2023/04/07 09:14:07;;;;;;;9.70;6.05;;;;;;;;;;5018459;28;20601;-91
2023/04/07 09:16:34;;;;;;;9.75;7.45;;;;;;;;;;5020767;28;20056;-92
2023/04/07 09:19:02;;;;;;;9.23;7.45;;;;;;;;;;5039915;28;20052;-92
2023/04/07 09:21:48;;;;;;;9.00;7.63;;;;;;;;;;5058171;28;20080;-92
2023/04/07 09:24:23;;;;;;;11.25;8.10;;;;;;;;;;5043582;28;20212;-91
2023/04/07 09:26:51;;;;;;;10.30;7.25;;;;;;;;;;5037572;28;20056;-89
2023/04/07 09:29:19;;;;;;;8.88;7.03;;;;;;;;;;5037522;28;20045;-91
2023/04/07 09:31:53;;;;;;;11.68;7.00;;;;;;;;;;5033561;28;20076;-89
2023/04/07 09:34:31;;;;;;;7.88;6.82;;;;;;;;;;5017836;28;20103;-90
2023/04/07 09:36:59;;;;;;;9.77;7.45;;;;;;;;;;5018223;28;20581;-92
2023/04/07 09:39:27;;;;;;;8.45;6.82;;;;;;;;;;5023678;28;20091;-89
2023/04/07 09:41:54;;;;;;;10.00;7.38;;;;;;;;;;5041254;28;20424;-90
2023/04/07 09:44:22;;;;;;;9.57;8.38;;;;;;;;;;5037571;28;20136;-91
2023/04/07 09:46:53;;;;;;;10.85;8.25;;;;;;;;;;5045149;28;20049;-91
2023/04/07 09:49:21;;;;;;;9.75;8.10;;;;;;;;;;5052648;28;20501;-91
2023/04/07 09:51:58;;;;;;;10.23;8.05;;;;;;;;;;5042714;28;20063;-90
2023/04/07 09:54:36;;;;;;;11.02;8.32;;;;;;;;;;5038156;28;20057;-91
2023/04/07 09:57:06;;;;;;;11.60;7.70;;;;;;;;;;5021407;28;20045;-90
2023/04/07 09:59:35;;;;;;;10.75;8.43;;;;;;;;;;5016944;28;20490;-91
2023/04/07 10:02:02;;;;;;;10.40;8.00;;;;;;;;;;5045675;28;20084;-91
2023/04/07 10:04:30;;;;;;;10.30;8.07;;;;;;;;;;5056975;28;20496;-92
2023/04/07 10:06:58;;;;;;;10.48;7.65;;;;;;;;;;5042820;28;20049;-91
2023/04/07 10:09:26;;;;;;;9.70;7.90;;;;;;;;;;5036583;28;20124;-91
2023/04/07 10:11:55;;;;;;;12.15;8.30;;;;;;;;;;5024244;28;20063;-93
2023/04/07 10:14:27;;;;;;;12.85;8.35;;;;;;;;;;5035286;28;20057;-93
2023/04/07 10:16:56;;;;;;;11.48;8.45;;;;;;;;;;5030326;28;20494;-90
2023/04/07 10:19:24;;;;;;;11.70;8.60;;;;;;;;;;5033871;28;20107;-92
2023/04/07 10:21:52;;;;;;;10.35;8.55;;;;;;;;;;5051788;28;20609;-90
2023/04/07 10:24:31;;;;;;;14.93;7.97;;;;;;;;;;5038876;28;20052;-92
2023/04/07 10:27:06;;;;;;;10.70;8.48;;;;;;;;;;5035936;28;20073;-90
2023/04/07 10:29:42;;;;;;;12.02;8.52;;;;;;;;;;5036806;28;20132;-90
2023/04/07 10:32:09;;;;;;;12.48;8.25;;;;;;;;;;5022460;28;20057;-90
2023/04/07 10:34:49;;;;;;;9.27;7.65;;;;;;;;;;5020593;28;20076;-91
2023/04/07 10:37:20;;;;;;;8.13;7.13;;;;;;;;;;5048397;28;20071;-91
2023/04/07 10:39:51;;;;;;;9.48;7.57;;;;;;;;;;5039535;28;20045;-91
2023/04/07 10:42:40;;;;;;;9.32;7.25;;;;;;;;;;5037917;28;20045;-92
2023/04/07 10:45:11;;;;;;;9.73;7.65;;;;;;;;;;5054714;28;20110;-91
2023/04/07 10:47:57;;;;;;;11.82;8.00;;;;;;;;;;5041206;28;20140;-93
2023/04/07 10:50:25;;;;;;;10.75;7.70;;;;;;;;;;5035953;28;20049;-90
2023/04/07 10:53:10;;;;;;;9.35;7.80;;;;;;;;;;5018910;28;20083;-90
2023/04/07 10:55:41;;;;;;;9.63;7.80;;;;;;;;;;5021614;28;20136;-92
2023/04/07 10:58:16;;;;;;;8.95;7.95;;;;;;;;;;5037967;28;20064;-92
2023/04/07 11:01:03;;;;;;;12.45;7.75;;;;;;;;;;5035772;28;20059;-92
2023/04/07 11:03:32;;;;;;;10.52;8.10;;;;;;;;;;5017854;28;20059;-92
2023/04/07 11:06:11;;;;;;;10.50;7.85;;;;;;;;;;5020171;28;20045;-93
2023/04/07 11:08:39;;;;;;;10.63;7.75;;;;;;;;;;5036241;28;20108;-91
2023/04/07 11:11:10;;;;;;;8.88;7.43;;;;;;;;;;5033151;28;20119;-92
2023/04/07 11:13:46;;;;;;;9.45;8.23;;;;;;;;;;5016936;28;20064;-92
2023/04/07 11:16:18;;;;;;;8.82;7.68;;;;;;;;;;5025358;28;20111;-90
2023/04/07 11:18:46;;;;;;;117.40;92.18;;;;;;;;;;5058259;28;20416;-90
2023/04/07 11:21:17;;;;;;;10.23;8.20;;;;;;;;;;5053342;28;20110;-91
2023/04/07 11:23:46;;;;;;;9.10;7.65;;;;;;;;;;5069383;28;20099;-91
2023/04/07 11:26:15;;;;;;;9.95;8.05;;;;;;;;;;5037243;28;20056;-95
2023/04/07 11:28:46;;;;;;;9.60;8.05;;;;;;;;;;5033562;28;20050;-92
2023/04/07 11:31:22;;;;;;;10.73;8.32;;;;;;;;;;5036128;28;20057;-90
2023/04/07 11:33:54;;;;;;;17.02;12.32;;;;;;;;;;5056687;28;20044;-92
2023/04/07 11:36:29;;;;;;;14.30;9.63;;;;;;;;;;5052909;28;20505;-91
2023/04/07 11:38:57;;;;;;;137.38;77.50;;;;;;;;;;5053753;28;20050;-92
2023/04/07 11:41:26;;;;;;;32.67;21.33;;;;;;;;;;5033091;28;20050;-92
2023/04/07 11:44:06;;;;;;;22.20;15.43;;;;;;;;;;5049102;28;20084;-92
2023/04/07 11:46:33;;;;;;;12.85;9.20;;;;;;;;;;5062842;28;20079;-89
2023/04/07 11:49:11;;;;;;;29.88;22.95;;;;;;;;;;5044540;28;20057;-89
2023/04/07 11:51:38;;;;;;;13.90;9.07;;;;;;;;;;5046012;28;20041;-92
2023/04/07 11:54:06;;;;;;;54.75;37.78;;;;;;;;;;5038178;28;20053;-90
2023/04/07 11:56:46;;;;;;;7.47;6.35;;;;;;;;;;5042750;28;20060;-91
2023/04/07 11:59:21;;;;;;;10.70;8.00;;;;;;;;;;5033084;28;20065;-90
2023/04/07 12:01:49;;;;;;;14.68;9.52;;;;;;;;;;5038774;28;20100;-90
2023/04/07 12:04:17;;;;;;;10.30;6.85;;;;;;;;;;5055744;28;20075;-90
2023/04/07 12:06:46;;;;;;;6.85;6.15;;;;;;;;;;5053489;28;20413;-93
2023/04/07 12:09:28;;;;;;;6.85;6.18;;;;;;;;;;5070156;28;20060;-90
2023/04/07 12:11:56;;;;;;;7.60;5.88;;;;;;;;;;5067389;28;20041;-92
2023/04/07 12:14:25;;;;;;;6.97;5.70;;;;;;;;;;5059698;28;20059;-92
2023/04/07 12:16:57;;;;;;;10.60;6.30;;;;;;;;;;5045528;28;20072;-91
2023/04/07 12:19:29;;;;;;;7.00;6.13;;;;;;;;;;5028601;28;20052;-91
2023/04/07 12:21:57;;;;;;;7.72;5.68;;;;;;;;;;5033910;28;20143;-93
2023/04/07 12:24:24;;;;;;;8.80;6.43;;;;;;;;;;5039289;28;20087;-93
2023/04/07 12:26:52;;;;;;;8.65;6.90;;;;;;;;;;5038354;28;20053;-91
2023/04/07 12:29:19;;;;;;;10.40;7.05;;;;;;;;;;5022114;28;20464;-92
2023/04/07 12:31:47;;;;;;;7.55;6.05;;;;;;;;;;5031131;28;20374;-92
2023/04/07 12:34:17;;;;;;;8.48;6.13;;;;;;;;;;5045545;28;20075;-92
2023/04/07 12:36:44;;;;;;;8.40;6.68;;;;;;;;;;5049106;28;20106;-92
2023/04/07 12:39:15;;;;;;;8.95;6.72;;;;;;;;;;5044797;28;20060;-93
2023/04/07 12:41:50;;;;;;;8.30;6.95;;;;;;;;;;5045529;28;20048;-93
2023/04/07 12:44:19;;;;;;;10.07;6.63;;;;;;;;;;5042854;28;20069;-95
2023/04/07 12:46:47;;;;;;;8.43;6.15;;;;;;;;;;5040759;28;20069;-93
2023/04/07 12:49:15;;;;;;;8.27;6.25;;;;;;;;;;5042095;28;20056;-90
2023/04/07 12:51:42;;;;;;;6.70;6.03;;;;;;;;;;5040871;28;20141;-91
2023/04/07 12:54:10;;;;;;;7.97;6.43;;;;;;;;;;5040071;28;20053;-94
2023/04/07 12:56:41;;;;;;;8.32;6.40;;;;;;;;;;5054669;28;20068;-92
2023/04/07 12:59:16;;;;;;;7.78;5.95;;;;;;;;;;5065011;28;20033;-94
2023/04/07 13:01:52;;;;;;;7.15;5.97;;;;;;;;;;5056278;28;20049;-93
2023/04/07 13:04:23;;;;;;;7.03;5.65;;;;;;;;;;5055856;28;20069;-95
2023/04/07 13:06:52;;;;;;;7.57;5.80;;;;;;;;;;5047053;28;20045;-94
2023/04/07 13:09:21;;;;;;;9.75;6.28;;;;;;;;;;5028469;28;20505;-91
2023/04/07 13:11:50;;;;;;;9.77;6.00;;;;;;;;;;5066313;28;20056;-93
2023/04/07 13:14:20;;;;;;;7.13;5.53;;;;;;;;;;5053152;28;20075;-94
2023/04/07 13:16:57;;;;;;;7.75;5.90;;;;;;;;;;5016327;28;20051;-93
2023/04/07 13:19:30;;;;;;;7.43;5.95;;;;;;;;;;5029611;28;20045;-93
2023/04/07 13:21:57;;;;;;;7.43;5.65;;;;;;;;;;5020253;28;20053;-91
2023/04/07 13:24:26;;;;;;;6.50;5.05;;;;;;;;;;5031179;28;20064;-93
2023/04/07 13:26:53;;;;;;;7.07;5.95;;;;;;;;;;5028762;28;20041;-93
2023/04/07 13:29:26;;;;;;;7.53;5.45;;;;;;;;;;5029933;28;20129;-93
2023/04/07 13:31:53;;;;;;;9.15;5.18;;;;;;;;;;5025767;28;20045;-91
2023/04/07 13:34:21;;;;;;;8.82;5.47;;;;;;;;;;5028567;28;20454;-92
2023/04/07 13:36:48;;;;;;;5.90;4.63;;;;;;;;;;5022983;28;20484;-92
2023/04/07 13:39:16;;;;;;;6.00;5.40;;;;;;;;;;5023833;28;20054;-91
2023/04/07 13:41:46;;;;;;;7.63;5.13;;;;;;;;;;5021154;28;20072;-92
2023/04/07 13:44:17;;;;;;;8.52;4.88;;;;;;;;;;5007400;28;20519;-94
2023/04/07 13:46:45;;;;;;;6.43;4.57;;;;;;;;;;5016087;28;20064;-91
2023/04/07 13:49:13;;;;;;;5.65;4.10;;;;;;;;;;5006044;28;20045;-92
2023/04/07 13:51:44;;;;;;;4.85;4.32;;;;;;;;;;5025282;28;20042;-93
2023/04/07 13:54:25;;;;;;;5.00;4.30;;;;;;;;;;5027846;28;20045;-93
2023/04/07 13:56:54;;;;;;;7.25;5.40;;;;;;;;;;5033877;28;20048;-92
2023/04/07 13:59:43;;;;;;;6.80;4.85;;;;;;;;;;5053992;28;20056;-94
2023/04/07 14:02:28;;;;;;;8.10;5.80;;;;;;;;;;5025473;28;20045;-93
2023/04/07 14:05:04;;;;;;;;;;;;;;;;;;5038102;28;20049;-94
2023/04/07 14:08:04;;;;;;;7.47;5.50;;;;;;;;;;5054377;28;19921;-92
2023/04/07 14:11:17;;;;;;;6.10;5.20;;;;;;;;;;5057825;28;20059;-94
2023/04/07 14:14:19;;;;;;;6.38;4.50;;;;;;;;;;4997258;28;20034;-94
2023/04/07 14:16:51;;;;;;;9.80;5.50;;;;;;;;;;4995996;28;20065;-92
2023/04/07 14:19:23;;;;;;;6.88;5.68;;;;;;;;;;5008378;28;20069;-91
2023/04/07 14:21:51;;;;;;;7.70;5.75;;;;;;;;;;5048769;22;20084;-85
2023/04/07 14:24:18;;;;;;;6.78;4.80;;;;;;;;;;5018707;28;20077;-86
2023/04/07 14:26:46;;;;;;;6.15;4.75;;;;;;;;;;5020148;28;20049;-86
2023/04/07 14:29:13;;;;;;;8.57;5.57;;;;;;;;;;5019210;28;20054;-85
2023/04/07 14:31:43;;;;;;;7.40;4.97;;;;;;;;;;4999593;28;20053;-85
2023/04/07 14:34:11;;;;;;;7.15;5.72;;;;;;;;;;5014742;28;20056;-84
2023/04/07 14:36:40;;;;;;;6.18;5.53;;;;;;;;;;5020022;28;20108;-85
2023/04/07 14:39:07;;;;;;;6.78;5.20;;;;;;;;;;5019423;28;20057;-86
2023/04/07 14:41:35;;;;;;;7.18;5.20;;;;;;;;;;5019635;28;20141;-86
2023/04/07 14:44:02;;;;;;;7.40;5.38;;;;;;;;;;5002938;28;21247;-83
2023/04/07 14:46:36;;;;;;;9.23;5.50;;;;;;;;;;4998711;28;20137;-84
2023/04/07 14:49:03;;;;;;;9.00;5.15;;;;;;;;;;4997570;28;20046;-84